createdAt,value
2023-01-19T00:01:44.399Z,93929.39
2023-01-19T00:04:12.406Z,93926.48
2023-01-19T00:06:40.482Z,93916.55
2023-01-19T00:09:08.486Z,93921.73
2023-01-19T00:11:36.731Z,93922.40
2023-01-19T00:14:05.205Z,93916.71
2023-01-19T00:16:33.275Z,93909.52
2023-01-19T00:19:01.367Z,93910.30
2023-01-19T00:21:29.436Z,93899.95
2023-01-19T00:23:57.459Z,93896.80
2023-01-19T00:26:25.527Z,93897.84
2023-01-19T00:28:53.609Z,93889.55
2023-01-19T00:31:22.093Z,93889.07
2023-01-19T00:33:51.665Z,93885.11
2023-01-19T00:36:19.814Z,93892.20
2023-01-19T00:38:47.844Z,93893.09
2023-01-19T00:41:16.530Z,93899.77
2023-01-19T00:53:07.962Z,93913.72
2023-01-19T00:55:36.062Z,93913.38
2023-01-19T00:58:04.191Z,93923.64
2023-01-19T01:00:32.271Z,93923.88
2023-01-19T01:03:00.896Z,93917.23
2023-01-19T01:05:29.543Z,93914.59
2023-01-19T01:07:57.815Z,93914.67
2023-01-19T01:10:29.030Z,93916.93
2023-01-19T01:12:58.656Z,93924.71
2023-01-19T01:15:29.677Z,93909.90
2023-01-19T01:17:57.828Z,93921.72
2023-01-19T01:20:30.356Z,93916.27
2023-01-19T01:22:59.038Z,93916.72
2023-01-19T01:25:28.817Z,93912.92
2023-01-19T01:27:56.905Z,93908.86
2023-01-19T01:30:25.032Z,93899.49
2023-01-19T01:32:53.054Z,93893.46
2023-01-19T01:35:21.131Z,93885.21
2023-01-19T01:37:49.230Z,93876.14
2023-01-19T01:40:18.772Z,93872.73
2023-01-19T01:42:47.062Z,93872.73
2023-01-19T01:45:38.562Z,93871.88
2023-01-19T01:48:06.659Z,93878.59
2023-01-19T01:51:00.423Z,93871.33
2023-01-19T01:53:32.952Z,93865.17
2023-01-19T01:56:05.209Z,93854.04
2023-01-19T01:58:34.431Z,93847.79
2023-01-19T02:01:21.595Z,93854.09
2023-01-19T02:03:50.363Z,93852.30
2023-01-19T02:06:18.362Z,93858.27
2023-01-19T02:09:29.276Z,93867.88
2023-01-19T02:12:15.912Z,93869.95
2023-01-19T02:14:44.002Z,93872.97
2023-01-19T02:17:12.179Z,93867.37
2023-01-19T02:19:43.606Z,93855.18
2023-01-19T02:22:25.758Z,93848.67
2023-01-19T02:24:54.029Z,93834.33
2023-01-19T02:27:22.080Z,93825.59
2023-01-19T02:29:50.132Z,93823.30
2023-01-19T02:32:18.214Z,93819.67
2023-01-19T02:34:46.410Z,93825.60
2023-01-19T02:37:17.177Z,93822.59
2023-01-19T02:39:52.910Z,93821.13
2023-01-19T02:42:44.641Z,93817.23
2023-01-19T02:45:15.588Z,93805.85
2023-01-19T02:47:46.608Z,93802.77
2023-01-19T02:50:39.134Z,93801.83
2023-01-19T02:53:21.741Z,93796.80
2023-01-19T02:55:58.159Z,93799.66
2023-01-19T02:58:52.882Z,93795.55
2023-01-19T03:01:54.232Z,93795.88
2023-01-19T03:04:37.635Z,93792.99
2023-01-19T03:07:14.899Z,93801.66
2023-01-19T03:09:48.643Z,93803.69
2023-01-19T03:12:42.309Z,93796.48
2023-01-19T03:15:22.353Z,93799.14
2023-01-19T03:17:53.162Z,93796.10
2023-01-19T03:20:28.427Z,93805.86
2023-01-19T03:23:03.445Z,93812.52
2023-01-19T03:25:35.256Z,93826.70
2023-01-19T03:28:04.495Z,93837.16
2023-01-19T03:30:39.213Z,93840.47
2023-01-19T03:33:21.812Z,93835.93
2023-01-19T03:35:57.010Z,93827.05
2023-01-19T03:38:27.330Z,93828.71
2023-01-19T03:41:00.296Z,93822.38
2023-01-19T03:43:31.610Z,93829.55
2023-01-19T03:46:01.245Z,93827.10
2023-01-19T03:48:29.366Z,93831.95
2023-01-19T03:50:57.514Z,93824.14
2023-01-19T03:53:25.501Z,93817.70
2023-01-19T03:55:54.406Z,93816.38
2023-01-19T03:58:22.469Z,93811.30
2023-01-19T04:00:50.590Z,93798.55
2023-01-19T04:03:18.991Z,93791.36
2023-01-19T04:05:47.040Z,93797.95
2023-01-19T04:08:15.233Z,93803.63
2023-01-19T04:10:43.333Z,93799.21
2023-01-19T04:13:11.376Z,93804.72
2023-01-19T04:15:39.644Z,93808.48
2023-01-19T04:18:08.803Z,93807.27
2023-01-19T04:20:37.472Z,93797.59
2023-01-19T04:23:05.547Z,93792.42
2023-01-19T04:25:33.758Z,93784.40
2023-01-19T04:28:01.946Z,93779.76
2023-01-19T04:30:30.009Z,93780.17
2023-01-19T04:33:00.100Z,93777.58
2023-01-19T04:35:28.807Z,93766.41
2023-01-19T04:37:56.826Z,93758.23
2023-01-19T04:40:25.008Z,93756.47
2023-01-19T04:42:54.164Z,93759.21
2023-01-19T04:45:22.186Z,93764.17
2023-01-19T04:47:51.135Z,93751.57
2023-01-19T04:50:19.129Z,93711.80
2023-01-19T04:52:48.031Z,93676.33
2023-01-19T04:55:17.126Z,93723.77
2023-01-19T04:57:45.631Z,93729.38
2023-01-19T05:00:14.170Z,93739.70
2023-01-19T05:02:44.289Z,93743.90
2023-01-19T05:05:13.324Z,93752.32
2023-01-19T05:07:43.598Z,93750.67
2023-01-19T05:10:12.206Z,93750.00
2023-01-19T05:12:40.498Z,93746.16
2023-01-19T05:15:10.110Z,93740.95
2023-01-19T05:17:38.477Z,93744.95
2023-01-19T05:20:07.510Z,93741.19
2023-01-19T05:22:35.529Z,93745.37
2023-01-19T05:25:03.824Z,93755.86
2023-01-19T05:27:31.920Z,93752.72
2023-01-19T05:29:59.878Z,93749.04
2023-01-19T05:32:28.132Z,93738.89
2023-01-19T05:34:56.546Z,93740.08
2023-01-19T05:37:24.652Z,93747.70
2023-01-19T05:39:53.407Z,93749.27
2023-01-19T05:42:21.556Z,93753.23
2023-01-19T05:44:49.744Z,93767.77
2023-01-19T05:47:17.789Z,93770.32
2023-01-19T05:49:45.901Z,93759.45
2023-01-19T05:52:14.009Z,93755.17
2023-01-19T05:54:42.093Z,93761.14
2023-01-19T05:57:10.951Z,93757.20
2023-01-19T05:59:39.025Z,93759.95
2023-01-19T06:02:07.139Z,93750.25
2023-01-19T06:04:35.562Z,93758.12
2023-01-19T06:07:04.775Z,93755.77
2023-01-19T06:09:33.768Z,93748.79
2023-01-19T06:12:01.778Z,93753.94
2023-01-19T06:14:30.359Z,93761.52
2023-01-19T06:16:58.517Z,93760.05
2023-01-19T06:19:26.562Z,93762.57
2023-01-19T06:21:54.714Z,93759.93
2023-01-19T06:24:24.104Z,93762.73
2023-01-19T06:26:52.305Z,93762.13
2023-01-19T06:29:20.544Z,93763.38
2023-01-19T06:31:49.134Z,93767.34
2023-01-19T06:34:18.254Z,93779.86
2023-01-19T06:50:30.071Z,93829.36
2023-01-19T06:52:58.693Z,93844.09
2023-01-19T06:55:27.933Z,93843.64
2023-01-19T06:57:58.797Z,93837.84
2023-01-19T07:00:27.294Z,93827.33
2023-01-19T07:02:55.563Z,93819.87
2023-01-19T07:05:24.589Z,93812.64
2023-01-19T07:07:57.078Z,93807.98
2023-01-19T07:10:25.316Z,93786.50
2023-01-19T07:12:53.474Z,93784.85
2023-01-19T07:15:22.618Z,93784.83
2023-01-19T07:17:50.655Z,93786.11
2023-01-19T07:20:19.857Z,93789.27
2023-01-19T07:22:49.005Z,93796.91
2023-01-19T07:25:17.239Z,93794.02
2023-01-19T07:27:45.343Z,93789.11
2023-01-19T07:30:16.185Z,93786.75
2023-01-19T07:32:44.260Z,93783.00
2023-01-19T07:35:12.584Z,93790.52
2023-01-19T07:37:40.681Z,93807.34
2023-01-19T07:40:09.342Z,93813.45
2023-01-19T07:42:38.104Z,93804.33
2023-01-19T07:45:06.743Z,93808.77
2023-01-19T07:47:34.895Z,93826.39
2023-01-19T07:50:03.543Z,93835.21
2023-01-19T07:52:31.960Z,93837.25
2023-01-19T07:55:00.289Z,93843.52
2023-01-19T07:57:28.772Z,93851.52
2023-01-19T07:59:56.964Z,93867.57
2023-01-19T08:02:26.030Z,93886.55
2023-01-19T08:04:54.302Z,93889.66
2023-01-19T08:07:22.608Z,93884.95
2023-01-19T08:09:50.923Z,93875.67
2023-01-19T08:12:19.105Z,93868.77
2023-01-19T08:14:47.221Z,93868.21
2023-01-19T08:17:15.266Z,93859.97
2023-01-19T08:19:44.112Z,93849.52
2023-01-19T08:22:12.411Z,93855.89
2023-01-19T08:24:40.539Z,93859.77
2023-01-19T08:27:13.673Z,93870.16
2023-01-19T08:29:41.801Z,93874.02
2023-01-19T08:32:10.971Z,93881.77
2023-01-19T08:34:41.322Z,93884.58
2023-01-19T08:37:10.074Z,93881.41
2023-01-19T08:39:38.375Z,93886.44
2023-01-19T08:42:06.518Z,93886.21
2023-01-19T08:44:34.616Z,93893.02
2023-01-19T08:47:02.847Z,93897.96
2023-01-19T08:49:30.905Z,93891.16
2023-01-19T08:51:59.264Z,93887.66
2023-01-19T08:54:27.463Z,93887.67
2023-01-19T08:56:55.703Z,93889.20
2023-01-19T08:59:23.741Z,93885.90
2023-01-19T09:01:52.057Z,93882.95
2023-01-19T09:04:20.272Z,93881.52
2023-01-19T09:06:48.959Z,93885.63
2023-01-19T09:09:17.042Z,93888.49
2023-01-19T09:11:45.474Z,93889.45
2023-01-19T09:14:14.228Z,93891.84
2023-01-19T09:16:42.398Z,93893.39
2023-01-19T09:19:10.575Z,93892.70
2023-01-19T09:21:38.921Z,93884.06
2023-01-19T09:24:07.377Z,93877.20
2023-01-19T09:26:36.653Z,93881.48
2023-01-19T09:29:04.829Z,93879.14
2023-01-19T09:31:33.373Z,93882.72
2023-01-19T09:34:01.633Z,93892.98
2023-01-19T09:36:30.301Z,93897.56
2023-01-19T09:38:58.586Z,93894.16
2023-01-19T09:41:26.779Z,93892.31
2023-01-19T09:44:00.356Z,93896.80
2023-01-19T09:46:42.166Z,93892.60
2023-01-19T09:49:22.023Z,93891.60
2023-01-19T09:51:51.650Z,93891.40
2023-01-19T09:54:36.342Z,93893.16
2023-01-19T09:57:15.110Z,93888.98
2023-01-19T09:59:47.896Z,93889.40
2023-01-19T10:02:36.764Z,93889.34
2023-01-19T10:05:21.773Z,93886.67
2023-01-19T10:08:11.269Z,93876.48
2023-01-19T10:10:45.301Z,93873.20
2023-01-19T10:13:13.544Z,93872.49
2023-01-19T10:15:47.846Z,93870.20
2023-01-19T10:18:46.038Z,93870.78
2023-01-19T10:21:33.599Z,93866.60
2023-01-19T10:24:06.687Z,93862.12
2023-01-19T10:26:42.932Z,93853.57
2023-01-19T10:29:24.190Z,93850.87
2023-01-19T10:31:55.714Z,93847.44
2023-01-19T10:34:24.058Z,93847.45
2023-01-19T10:37:02.614Z,93849.62
2023-01-19T10:39:30.755Z,93852.81
2023-01-19T10:42:02.611Z,93858.33
2023-01-19T10:44:36.594Z,93867.23
2023-01-19T10:47:11.904Z,93874.50
2023-01-19T10:49:44.708Z,93873.80
2023-01-19T10:52:22.242Z,93864.87
2023-01-19T10:54:50.505Z,93861.52
2023-01-19T10:57:40.927Z,93858.30
2023-01-19T11:00:40.109Z,93859.55
2023-01-19T11:03:29.792Z,93860.04
2023-01-19T11:06:13.851Z,93854.97
2023-01-19T11:08:44.491Z,93857.38
2023-01-19T11:11:14.128Z,93856.58
2023-01-19T11:13:43.877Z,93859.48
2023-01-19T11:16:35.287Z,93850.42
2023-01-19T11:19:05.114Z,93849.27
2023-01-19T11:21:33.600Z,93843.83
2023-01-19T11:24:05.550Z,93845.23
2023-01-19T11:27:03.204Z,93845.27
2023-01-19T11:29:32.049Z,93843.91
2023-01-19T11:32:10.367Z,93850.98
2023-01-19T11:34:41.273Z,93857.81
2023-01-19T11:37:18.769Z,93859.58
2023-01-19T11:39:50.036Z,93865.31
2023-01-19T11:42:19.208Z,93863.14
2023-01-19T11:44:47.298Z,93866.63
2023-01-19T11:47:38.954Z,93866.69
2023-01-19T11:50:23.068Z,93860.12
2023-01-19T11:53:07.539Z,93857.16
2023-01-19T11:55:54.346Z,93862.67
2023-01-19T11:58:24.035Z,93854.02
2023-01-19T12:01:01.605Z,93858.92
2023-01-19T12:03:44.349Z,93858.81
2023-01-19T12:06:16.480Z,93855.44
2023-01-19T12:08:51.782Z,93856.21
2023-01-19T12:11:27.021Z,93845.33
2023-01-19T12:13:55.250Z,93851.95
2023-01-19T12:16:29.083Z,93854.91
2023-01-19T12:19:10.978Z,93860.80
2023-01-19T12:21:39.091Z,93866.04
2023-01-19T12:24:39.675Z,93870.05
2023-01-19T12:27:43.787Z,93876.80
2023-01-19T12:30:23.103Z,93882.17
2023-01-19T12:32:51.786Z,93879.60
2023-01-19T12:35:56.203Z,93877.77
2023-01-19T12:38:33.888Z,93879.23
2023-01-19T12:41:22.294Z,93884.45
2023-01-19T12:44:16.592Z,93888.70
2023-01-19T12:46:52.503Z,93892.44
2023-01-19T12:49:23.553Z,93880.77
2023-01-19T12:52:13.288Z,93876.00
2023-01-19T12:54:50.326Z,93876.20
2023-01-19T12:57:24.978Z,93866.83
2023-01-19T13:00:02.977Z,93874.11
2023-01-19T13:02:42.548Z,93875.53
2023-01-19T13:05:18.892Z,93875.33
2023-01-19T13:08:02.511Z,93882.56
2023-01-19T13:10:52.613Z,93889.02
2023-01-19T13:13:28.131Z,93891.67
2023-01-19T13:16:01.178Z,93890.92
2023-01-19T13:18:39.638Z,93888.63
2023-01-19T13:21:09.676Z,93890.23
2023-01-19T13:23:50.372Z,93897.80
2023-01-19T13:26:27.858Z,93900.02
2023-01-19T13:29:07.191Z,93896.40
2023-01-19T13:31:39.887Z,93906.58
2023-01-19T13:34:21.153Z,93907.41
2023-01-19T13:36:55.315Z,93918.35
2023-01-19T13:39:28.903Z,93917.01
2023-01-19T13:42:02.434Z,93913.52
2023-01-19T13:44:52.301Z,93910.37
2023-01-19T13:47:27.163Z,93910.60
2023-01-19T13:49:59.009Z,93895.22
2023-01-19T13:52:31.440Z,93889.85
2023-01-19T13:55:03.802Z,93898.80
2023-01-19T13:57:39.496Z,93907.30
2023-01-19T14:00:16.616Z,93915.44
2023-01-19T14:03:16.055Z,93928.49
2023-01-19T14:05:44.867Z,93935.57
2023-01-19T14:08:15.350Z,93941.52
2023-01-19T14:10:56.517Z,93942.98
2023-01-19T14:13:29.562Z,93947.44
2023-01-19T14:16:06.480Z,93951.08
2023-01-19T14:18:36.347Z,93947.64
2023-01-19T14:21:14.396Z,93941.57
2023-01-19T14:23:52.674Z,93945.27
2023-01-19T14:26:39.653Z,93956.40
2023-01-19T14:29:32.764Z,93960.23
2023-01-19T14:32:28.158Z,93952.69
2023-01-19T14:35:04.616Z,93958.46
2023-01-19T14:37:35.710Z,93962.25
2023-01-19T14:40:18.740Z,93967.72
2023-01-19T14:43:08.589Z,93962.98
2023-01-19T14:45:40.675Z,93972.20
2023-01-19T14:48:19.215Z,93985.79
2023-01-19T14:51:02.356Z,93990.64
2023-01-19T14:53:38.383Z,93994.80
2023-01-19T14:56:07.686Z,93997.17
2023-01-19T14:58:36.566Z,93993.13
2023-01-19T15:01:06.392Z,93996.75
2023-01-19T15:03:49.313Z,93996.47
2023-01-19T15:06:21.126Z,94006.02
2023-01-19T15:08:50.558Z,94005.89
2023-01-19T15:11:47.106Z,94003.33
2023-01-19T15:14:17.617Z,93989.33
2023-01-19T15:16:46.166Z,93988.58
2023-01-19T15:19:17.031Z,93993.77
2023-01-19T15:21:46.995Z,94000.56
2023-01-19T15:24:17.748Z,94010.05
2023-01-19T15:26:46.410Z,94017.45
2023-01-19T15:29:26.337Z,94023.96
2023-01-19T15:31:54.445Z,94031.06
2023-01-19T15:34:22.694Z,94038.28
2023-01-19T15:36:50.770Z,94035.68
2023-01-19T15:39:19.041Z,94024.78
2023-01-19T15:41:47.114Z,94029.11
2023-01-19T15:44:15.164Z,94036.75
2023-01-19T15:46:43.347Z,94042.86
2023-01-19T15:49:11.470Z,94047.20
2023-01-19T15:51:39.768Z,94039.79
2023-01-19T15:54:16.536Z,94051.54
2023-01-19T15:56:44.827Z,94067.13
2023-01-19T15:59:13.117Z,94076.28
2023-01-19T16:01:41.604Z,94071.45
2023-01-19T16:04:11.847Z,94075.39
2023-01-19T16:06:40.040Z,94075.07
2023-01-19T16:09:08.209Z,94075.60
2023-01-19T16:11:38.464Z,94073.91
2023-01-19T16:14:06.529Z,94069.94
2023-01-19T16:16:34.737Z,94075.89
2023-01-19T16:19:03.003Z,94075.94
2023-01-19T16:21:31.085Z,94070.77
2023-01-19T16:23:59.171Z,94072.79
2023-01-19T16:26:30.642Z,94073.84
2023-01-19T16:29:00.633Z,94080.38
2023-01-19T16:31:29.362Z,94087.83
2023-01-19T16:33:57.853Z,94094.14
2023-01-19T16:36:29.005Z,94099.09
2023-01-19T16:39:02.058Z,94108.02
2023-01-19T16:41:30.155Z,94095.72
2023-01-19T16:43:58.991Z,94102.30
2023-01-19T16:46:28.195Z,94105.52
2023-01-19T16:49:02.249Z,94115.13
2023-01-19T16:51:30.990Z,94112.70
2023-01-19T16:53:59.511Z,94122.41
2023-01-19T16:56:28.131Z,94124.34
2023-01-19T16:58:58.013Z,94126.38
2023-01-19T17:01:29.174Z,94129.48
2023-01-19T17:03:57.655Z,94123.35
2023-01-19T17:06:26.685Z,94123.75
2023-01-19T17:08:55.255Z,94127.73
2023-01-19T17:11:24.974Z,94131.45
2023-01-19T17:14:00.248Z,94128.21
2023-01-19T17:16:30.366Z,94134.04
2023-01-19T17:18:59.898Z,94138.60
2023-01-19T17:21:28.778Z,94141.83
2023-01-19T17:23:57.271Z,94136.75
2023-01-19T17:26:28.391Z,94134.48
2023-01-19T17:29:01.749Z,94132.39
2023-01-19T17:31:30.591Z,94137.31
2023-01-19T17:34:00.275Z,94143.38
2023-01-19T17:36:30.540Z,94148.16
2023-01-19T17:39:00.838Z,94143.48
2023-01-19T17:41:31.493Z,94141.53
2023-01-19T17:44:00.919Z,94147.71
2023-01-19T17:46:29.739Z,94150.64
2023-01-19T17:49:02.717Z,94151.09
2023-01-19T17:51:32.083Z,94151.59
2023-01-19T17:54:00.276Z,94150.66
2023-01-19T17:56:32.410Z,94152.58
2023-01-19T17:59:00.646Z,94156.52
2023-01-19T18:01:33.724Z,94159.17
2023-01-19T18:04:02.701Z,94162.86
2023-01-19T18:06:30.879Z,94168.94
2023-01-19T18:09:01.800Z,94170.40
2023-01-19T18:11:29.915Z,94170.90
2023-01-19T18:13:58.716Z,94173.33
2023-01-19T18:16:29.585Z,94169.46
2023-01-19T18:18:57.818Z,94160.02
2023-01-19T18:21:30.586Z,94160.88
2023-01-19T18:24:02.282Z,94155.94
2023-01-19T18:26:32.460Z,94160.86
2023-01-19T18:29:01.063Z,94166.33
2023-01-19T18:31:29.192Z,94174.24
2023-01-19T18:33:57.401Z,94176.18
2023-01-19T18:36:26.219Z,94182.46
2023-01-19T18:38:54.213Z,94195.84
2023-01-19T18:41:22.296Z,94210.92
2023-01-19T18:43:52.068Z,94213.45
2023-01-19T18:46:21.399Z,94220.44
2023-01-19T18:48:49.708Z,94227.61
2023-01-19T18:51:18.526Z,94235.70
2023-01-19T18:53:46.812Z,94241.50
2023-01-19T18:56:16.578Z,94243.83
2023-01-19T18:58:44.969Z,94244.55
2023-01-19T19:01:22.380Z,94242.55
2023-01-19T19:03:51.772Z,94246.98
2023-01-19T19:06:20.979Z,94254.21
2023-01-19T19:08:53.250Z,94251.50
2023-01-19T19:11:23.634Z,94249.70
2023-01-19T19:13:57.879Z,94246.13
2023-01-19T19:16:26.805Z,94255.15
2023-01-19T19:18:55.115Z,94261.48
2023-01-19T19:21:25.448Z,94270.77
2023-01-19T19:23:55.436Z,94272.29
2023-01-19T19:26:24.800Z,94271.04
2023-01-19T19:28:52.986Z,94262.26
2023-01-19T19:31:23.165Z,94262.02
2023-01-19T19:33:51.858Z,94256.73
2023-01-19T19:36:21.064Z,94265.36
2023-01-19T19:38:50.088Z,94271.94
2023-01-19T19:41:21.339Z,94275.00
2023-01-19T19:43:50.119Z,94275.07
2023-01-19T19:46:20.443Z,94265.70
2023-01-19T19:48:49.186Z,94260.77
2023-01-19T19:51:22.681Z,94249.20
2023-01-19T19:53:52.623Z,94252.60
2023-01-19T19:56:23.587Z,94261.34
2023-01-19T19:58:54.713Z,94261.48
2023-01-19T20:01:28.576Z,94267.90
2023-01-19T20:04:00.048Z,94268.59
2023-01-19T20:06:28.301Z,94279.97
2023-01-19T20:08:56.958Z,94276.86
2023-01-19T20:11:28.662Z,94274.52
2023-01-19T20:13:56.699Z,94278.33
2023-01-19T20:16:25.520Z,94286.06
2023-01-19T20:18:56.925Z,94283.49
2023-01-19T20:21:30.662Z,94295.81
2023-01-19T20:24:18.324Z,94303.81
2023-01-19T20:26:50.374Z,94302.87
2023-01-19T20:29:20.076Z,94306.98
2023-01-19T20:31:53.976Z,94307.97
2023-01-19T20:34:24.961Z,94307.64
2023-01-19T20:36:55.239Z,94312.02
2023-01-19T20:39:24.944Z,94310.66
2023-01-19T20:41:53.088Z,94305.10
2023-01-19T20:44:24.050Z,94301.43
2023-01-19T20:46:53.495Z,94306.30
2023-01-19T20:49:22.216Z,94312.23
2023-01-19T20:51:52.084Z,94318.77
2023-01-19T20:54:26.332Z,94321.17
2023-01-19T20:56:54.604Z,94324.08
2023-01-19T20:59:23.792Z,94328.39
2023-01-19T21:01:52.470Z,94329.34
2023-01-19T21:04:20.550Z,94342.84
2023-01-19T21:06:48.739Z,94338.25
2023-01-19T21:09:18.633Z,94335.73
2023-01-19T21:11:46.870Z,94340.86
2023-01-19T21:14:14.954Z,94340.78
2023-01-19T21:16:43.104Z,94348.81
2023-01-19T21:19:12.144Z,94352.42
2023-01-19T21:21:40.179Z,94352.24
2023-01-19T21:24:10.424Z,94349.61
2023-01-19T21:26:38.568Z,94350.00
2023-01-19T21:29:06.855Z,94347.80
2023-01-19T21:31:35.117Z,94355.55
2023-01-19T21:34:03.338Z,94362.47
2023-01-19T21:36:31.537Z,94370.94
2023-01-19T21:39:05.049Z,94375.21
2023-01-19T21:41:34.926Z,94379.91
2023-01-19T21:44:03.079Z,94389.90
2023-01-19T21:46:33.144Z,94395.27
2023-01-19T21:49:04.188Z,94395.02
2023-01-19T21:51:34.880Z,94390.37
2023-01-19T21:54:05.255Z,94394.35
2023-01-19T21:56:35.096Z,94402.29
2023-01-19T21:59:04.402Z,94411.41
2023-01-19T22:01:33.661Z,94422.91
2023-01-19T22:04:01.947Z,94421.89
2023-01-19T22:06:30.139Z,94423.42
2023-01-19T22:08:58.605Z,94417.91
2023-01-19T22:11:28.077Z,94415.94
2023-01-19T22:13:56.626Z,94416.42
2023-01-19T22:16:24.759Z,94412.80
2023-01-19T22:18:59.694Z,94407.65
2023-01-19T22:21:35.141Z,94404.42
2023-01-19T22:24:05.068Z,94404.07
2023-01-19T22:26:34.497Z,94398.45
2023-01-19T22:29:04.443Z,94397.13
2023-01-19T22:31:33.018Z,94389.23
2023-01-19T22:34:01.105Z,94385.65
2023-01-19T22:36:35.688Z,94387.70
2023-01-19T22:39:09.278Z,94386.97
2023-01-19T22:41:40.930Z,94390.65
2023-01-19T22:44:12.906Z,94396.44
2023-01-19T22:46:41.069Z,94412.45
2023-01-19T22:49:12.753Z,94422.90
2023-01-19T22:51:41.534Z,94428.56
2023-01-19T22:54:10.038Z,94430.32
2023-01-19T22:56:39.279Z,94432.75
2023-01-19T22:59:07.763Z,94434.65
2023-01-19T23:01:41.527Z,94431.65
2023-01-19T23:04:13.253Z,94431.11
2023-01-19T23:06:43.294Z,94432.38
2023-01-19T23:09:14.252Z,94434.14
2023-01-19T23:11:45.186Z,94432.26
2023-01-19T23:14:16.886Z,94431.12
2023-01-19T23:16:47.358Z,94434.15
2023-01-19T23:19:17.384Z,94437.94
2023-01-19T23:21:46.041Z,94443.52
2023-01-19T23:24:14.058Z,94433.06
2023-01-19T23:26:42.207Z,94426.16
2023-01-19T23:29:13.862Z,94426.03
2023-01-19T23:31:47.556Z,94441.22
2023-01-19T23:34:17.064Z,94443.67
2023-01-19T23:36:45.741Z,94441.20
2023-01-19T23:39:17.117Z,94443.42
2023-01-19T23:41:45.903Z,94444.82
2023-01-19T23:44:13.896Z,94446.80
2023-01-19T23:46:41.948Z,94444.13
2023-01-19T23:49:09.966Z,94442.64
2023-01-19T23:51:39.720Z,94435.79
2023-01-19T23:54:08.101Z,94418.67
2023-01-19T23:56:37.735Z,94409.13
2023-01-19T23:59:12.052Z,94405.27
